createdAt,value
2018-08-24T00:04:27.429Z,98305.61
2018-08-24T00:09:23.354Z,98304.72
2018-08-24T00:14:16.412Z,98301.97
2018-08-24T00:19:12.686Z,98300.95
2018-08-24T00:24:06.487Z,98296.58
2018-08-24T00:29:00.513Z,98295.19
2018-08-24T00:33:54.038Z,98287.52
2018-08-24T00:38:46.966Z,98292.75
2018-08-24T00:43:39.916Z,98285.60
2018-08-24T00:48:32.975Z,98287.14
2018-08-24T00:53:25.922Z,98294.76
2018-08-24T00:58:19.176Z,98285.96
2018-08-24T01:03:14.086Z,98275.50
2018-08-24T01:08:08.169Z,98281.21
2018-08-24T01:13:01.216Z,98271.44
2018-08-24T01:17:59.762Z,98282.50
2018-08-24T01:22:52.759Z,98271.92
2018-08-24T01:27:46.029Z,98280.34
2018-08-24T01:32:38.978Z,98286.30
2018-08-24T01:37:31.964Z,98282.72
2018-08-24T01:42:24.844Z,98280.88
2018-08-24T01:47:18.514Z,98287.58
2018-08-24T01:52:12.154Z,98282.18
2018-08-24T01:57:05.362Z,98285.30
2018-08-24T02:01:58.414Z,98284.38
2018-08-24T02:06:51.561Z,98272.60
2018-08-24T02:11:44.882Z,98271.53
2018-08-24T02:16:38.857Z,98262.05
2018-08-24T02:21:39.630Z,98257.06
2018-08-24T02:26:32.619Z,98261.91
2018-08-24T02:31:25.799Z,98261.91
2018-08-24T02:36:18.925Z,98268.05
2018-08-24T02:41:11.876Z,98264.93
2018-08-24T02:46:05.043Z,98262.47
2018-08-24T02:50:58.074Z,98247.18
2018-08-24T02:55:51.126Z,98260.03
2018-08-24T03:00:44.158Z,98257.44
2018-08-24T03:05:37.207Z,98255.86
2018-08-24T03:10:31.207Z,98259.11
2018-08-24T03:15:24.318Z,98253.06
2018-08-24T03:20:17.371Z,98256.41
2018-08-24T03:25:10.676Z,98241.00
2018-08-24T03:30:03.846Z,98250.70
2018-08-24T03:34:56.950Z,98245.14
2018-08-24T03:39:51.637Z,98244.98
2018-08-24T03:44:44.714Z,98240.05
2018-08-24T03:49:38.486Z,98248.95
2018-08-24T03:54:31.861Z,98242.08
2018-08-24T03:59:25.426Z,98260.59
2018-08-24T04:04:18.382Z,98259.18
2018-08-24T04:09:12.010Z,98255.42
2018-08-24T04:14:05.204Z,98263.33
2018-08-24T04:18:58.303Z,98253.84
2018-08-24T04:23:51.594Z,98262.09
2018-08-24T04:28:44.755Z,98258.09
2018-08-24T04:33:37.786Z,98260.79
2018-08-24T04:38:30.782Z,98251.35
2018-08-24T04:43:23.783Z,98258.72
2018-08-24T04:48:16.769Z,98254.87
2018-08-24T04:53:09.762Z,98257.37
2018-08-24T04:58:03.204Z,98247.36
2018-08-24T05:02:56.317Z,98246.12
2018-08-24T05:07:49.385Z,98244.13
2018-08-24T05:12:42.379Z,98243.91
2018-08-24T05:17:35.731Z,98247.56
2018-08-24T05:22:28.700Z,98246.73
2018-08-24T05:27:21.653Z,98248.44
2018-08-24T05:32:14.737Z,98247.42
2018-08-24T05:37:07.969Z,98237.64
2018-08-24T05:42:01.038Z,98233.34
2018-08-24T05:46:54.083Z,98236.53
2018-08-24T05:51:48.149Z,98235.50
2018-08-24T05:56:41.173Z,98232.42
2018-08-24T06:01:34.199Z,98229.70
2018-08-24T06:06:28.075Z,98228.75
2018-08-24T06:11:21.180Z,98234.05
2018-08-24T06:16:14.240Z,98232.50
2018-08-24T06:21:07.139Z,98224.78
2018-08-24T06:26:00.094Z,98219.97
2018-08-24T06:30:53.105Z,98217.14
2018-08-24T06:35:48.191Z,98216.87
2018-08-24T06:40:41.636Z,98218.22
2018-08-24T06:45:34.759Z,98213.59
2018-08-24T06:50:31.278Z,98210.03
2018-08-24T06:55:24.442Z,98215.52
2018-08-24T07:00:23.015Z,98214.97
2018-08-24T07:05:16.182Z,98218.34
2018-08-24T07:10:09.209Z,98218.09
2018-08-24T07:15:02.140Z,98231.14
2018-08-24T07:19:55.505Z,98227.71
2018-08-24T07:24:48.654Z,98225.52
2018-08-24T07:29:42.603Z,98231.73
2018-08-24T07:34:35.574Z,98233.64
2018-08-24T07:39:28.631Z,98227.94
2018-08-24T07:44:21.761Z,98224.78
2018-08-24T07:49:14.781Z,98224.53
2018-08-24T07:54:07.846Z,98225.25
2018-08-24T07:59:01.906Z,98219.64
2018-08-24T08:03:54.877Z,98216.73
2018-08-24T08:08:48.346Z,98215.20
2018-08-24T08:13:41.336Z,98218.08
2018-08-24T08:18:34.490Z,98217.27
2018-08-24T08:23:28.429Z,98213.77
2018-08-24T08:28:21.405Z,98209.70
2018-08-24T08:33:14.330Z,98203.02
2018-08-24T08:38:07.319Z,98200.30
2018-08-24T08:43:00.417Z,98189.77
2018-08-24T08:47:53.666Z,98182.26
2018-08-24T08:52:46.727Z,98181.42
2018-08-24T08:57:40.187Z,98178.61
2018-08-24T09:02:33.330Z,98176.94
2018-08-24T09:07:26.469Z,98171.81
2018-08-24T09:12:19.621Z,98159.05
2018-08-24T09:17:18.121Z,98163.56
2018-08-24T09:22:16.721Z,98157.69
2018-08-24T09:27:15.364Z,98149.39
2018-08-24T09:32:08.754Z,98144.34
2018-08-24T09:37:05.836Z,98142.06
2018-08-24T09:42:00.263Z,98140.34
2018-08-24T09:46:58.886Z,98134.43
2018-08-24T09:51:51.888Z,98128.03
2018-08-24T09:56:44.905Z,98122.22
2018-08-24T10:01:43.255Z,98111.27
2018-08-24T10:06:41.850Z,98112.13
2018-08-24T10:11:34.822Z,98108.44
2018-08-24T10:16:27.811Z,98104.13
2018-08-24T10:21:21.218Z,98109.06
2018-08-24T10:26:14.560Z,98101.30
2018-08-24T10:31:08.350Z,98094.11
2018-08-24T10:36:01.734Z,98099.23
2018-08-24T10:40:54.934Z,98080.91
2018-08-24T10:45:48.322Z,98084.50
2018-08-24T10:50:41.467Z,98085.36
2018-08-24T10:55:34.404Z,98088.50
2018-08-24T11:00:27.319Z,98078.22
2018-08-24T11:05:20.425Z,98082.02
2018-08-24T11:10:13.402Z,98074.55
2018-08-24T11:15:06.993Z,98063.88
2018-08-24T11:20:00.492Z,98061.98
2018-08-24T11:24:53.503Z,98059.45
2018-08-24T11:29:48.589Z,98055.36
2018-08-24T11:34:41.692Z,98052.12
2018-08-24T11:39:34.679Z,98035.47
2018-08-24T11:44:27.802Z,98039.23
2018-08-24T11:49:20.762Z,98024.12
2018-08-24T11:54:13.868Z,98021.36
2018-08-24T11:59:06.761Z,98019.75
2018-08-24T12:03:59.749Z,98007.45
2018-08-24T12:08:52.813Z,98014.20
2018-08-24T12:13:46.382Z,98009.22
2018-08-24T12:18:39.788Z,98002.32
2018-08-24T12:23:32.891Z,97994.34
2018-08-24T12:28:26.102Z,97972.51
2018-08-24T12:33:19.733Z,97975.84
2018-08-24T12:38:12.813Z,97973.29
2018-08-24T12:43:05.841Z,97962.73
2018-08-24T12:47:59.083Z,97978.02
2018-08-24T12:52:52.098Z,97971.95
2018-08-24T12:57:45.060Z,97970.88
2018-08-24T13:02:38.164Z,97969.89
2018-08-24T13:07:31.667Z,97964.39
2018-08-24T13:12:24.834Z,97961.75
2018-08-24T13:17:18.680Z,97962.04
2018-08-24T13:22:11.626Z,97954.36
2018-08-24T13:27:04.950Z,97960.06
2018-08-24T13:31:57.946Z,97955.24
2018-08-24T13:36:51.102Z,97961.08
2018-08-24T13:41:44.247Z,97959.72
2018-08-24T13:46:37.659Z,97951.39
2018-08-24T13:51:30.723Z,97955.98
2018-08-24T13:56:23.882Z,97948.43
2018-08-24T14:01:16.973Z,97945.05
2018-08-24T14:06:09.927Z,97949.39
2018-08-24T14:11:03.032Z,97952.80
2018-08-24T14:15:56.148Z,97947.84
2018-08-24T14:20:49.224Z,97945.59
2018-08-24T14:25:42.954Z,97941.66
2018-08-24T14:30:36.751Z,97954.35
2018-08-24T14:35:30.240Z,97949.89
2018-08-24T14:40:23.413Z,97948.77
2018-08-24T14:45:16.377Z,97947.05
2018-08-24T14:50:10.663Z,97944.20
2018-08-24T14:55:03.716Z,97935.20
2018-08-24T14:59:56.699Z,97930.00
2018-08-24T15:04:49.900Z,97923.34
2018-08-24T15:09:43.355Z,97926.63
2018-08-24T15:14:36.335Z,97936.44
2018-08-24T15:19:29.363Z,97937.07
2018-08-24T15:24:22.514Z,97943.94
2018-08-24T15:29:15.703Z,97942.21
2018-08-24T15:34:08.756Z,97935.33
2018-08-24T15:39:01.785Z,97932.86
2018-08-24T15:43:55.347Z,97939.83
2018-08-24T15:48:48.630Z,97947.91
2018-08-24T15:53:41.684Z,97943.19
2018-08-24T15:58:34.700Z,97951.63
2018-08-24T16:03:27.819Z,97958.87
2018-08-24T16:08:20.796Z,97966.13
2018-08-24T16:13:13.694Z,97974.25
2018-08-24T16:18:12.274Z,97977.55
2018-08-24T16:23:06.004Z,97983.07
2018-08-24T16:27:59.187Z,97985.73
2018-08-24T16:32:52.177Z,97997.69
2018-08-24T16:37:45.148Z,97999.16
2018-08-24T16:42:38.572Z,97997.20
2018-08-24T16:47:32.002Z,98009.67
2018-08-24T16:52:25.064Z,98016.44
2018-08-24T16:57:18.191Z,98009.59
2018-08-24T17:02:11.540Z,98014.72
2018-08-24T17:07:04.755Z,98015.50
2018-08-24T17:11:57.800Z,98017.59
2018-08-24T17:16:50.874Z,98017.75
2018-08-24T17:21:43.974Z,98023.56
2018-08-24T17:26:36.875Z,98035.56
2018-08-24T17:31:29.796Z,98043.28
2018-08-24T17:36:22.694Z,98046.94
2018-08-24T17:41:15.839Z,98055.43
2018-08-24T17:46:08.810Z,98056.73
2018-08-24T17:51:01.861Z,98058.91
2018-08-24T17:55:55.104Z,98068.50
2018-08-24T18:00:48.105Z,98068.44
2018-08-24T18:05:41.186Z,98071.16
2018-08-24T18:10:34.258Z,98083.26
2018-08-24T18:15:27.210Z,98086.29
2018-08-24T18:20:20.336Z,98089.83
2018-08-24T18:25:13.469Z,98083.64
2018-08-24T18:30:06.621Z,98081.84
2018-08-24T18:34:59.985Z,98091.41
2018-08-24T18:39:53.000Z,98087.64
2018-08-24T18:44:45.920Z,98088.74
2018-08-24T18:49:38.958Z,98094.91
2018-08-24T18:54:34.859Z,98096.52
2018-08-24T18:59:27.871Z,98096.98
2018-08-24T19:04:20.789Z,98098.86
2018-08-24T19:09:14.843Z,98097.79
2018-08-24T19:14:08.331Z,98106.98
2018-08-24T19:19:06.718Z,98103.36
2018-08-24T19:23:59.641Z,98100.20
2018-08-24T19:28:58.213Z,98096.63
2018-08-24T19:33:51.218Z,98090.38
2018-08-24T19:38:44.218Z,98093.83
2018-08-24T19:43:37.231Z,98095.13
2018-08-24T19:48:35.635Z,98092.80
2018-08-24T19:53:28.572Z,98087.27
2018-08-24T19:58:26.904Z,98088.73
2018-08-24T20:03:19.971Z,98088.86
2018-08-24T20:08:18.584Z,98095.84
2018-08-24T20:13:11.681Z,98089.79
2018-08-24T20:18:04.894Z,98091.16
2018-08-24T20:22:58.052Z,98095.20
2018-08-24T20:27:50.995Z,98089.62
2018-08-24T20:32:44.020Z,98097.52
2018-08-24T20:37:37.071Z,98099.34
2018-08-24T20:42:30.079Z,98102.24
2018-08-24T20:47:23.140Z,98102.84
2018-08-24T20:52:16.154Z,98108.98
2018-08-24T20:57:09.138Z,98100.45
2018-08-24T21:02:02.276Z,98098.60
2018-08-24T21:06:55.480Z,98092.23
2018-08-24T21:11:48.539Z,98083.91
2018-08-24T21:16:41.566Z,98090.66
2018-08-24T21:21:34.675Z,98085.66
2018-08-24T21:26:27.734Z,98087.92
2018-08-24T21:31:20.829Z,98087.72
2018-08-24T21:36:13.890Z,98087.76
2018-08-24T21:41:06.880Z,98090.92
2018-08-24T21:45:59.954Z,98077.26
2018-08-24T21:50:52.985Z,98071.03
2018-08-24T21:55:45.929Z,98074.58
2018-08-24T22:00:40.057Z,98071.61
2018-08-24T22:05:33.086Z,98071.42
2018-08-24T22:10:26.206Z,98067.27
2018-08-24T22:15:19.183Z,98061.14
2018-08-24T22:20:12.306Z,98057.50
2018-08-24T22:25:05.536Z,98050.97
2018-08-24T22:29:58.668Z,98047.09
2018-08-24T22:34:51.745Z,98036.52
2018-08-24T22:39:44.892Z,98029.98
2018-08-24T22:44:38.146Z,98032.64
2018-08-24T22:49:31.337Z,98040.82
2018-08-24T22:54:24.292Z,98035.75
2018-08-24T22:59:17.402Z,98030.33
2018-08-24T23:04:10.334Z,98021.16
2018-08-24T23:09:04.283Z,98023.19
2018-08-24T23:13:57.302Z,98019.64
2018-08-24T23:18:50.269Z,98009.06
2018-08-24T23:23:43.317Z,98016.27
2018-08-24T23:28:36.367Z,98003.73
2018-08-24T23:33:29.358Z,98003.05
2018-08-24T23:38:22.301Z,97993.38
2018-08-24T23:43:15.298Z,97997.37
2018-08-24T23:48:08.305Z,98000.16
2018-08-24T23:53:01.370Z,97999.47
2018-08-24T23:57:54.266Z,97998.59
